createdAt,value
2018-04-16T00:00:33.341Z,79.20
2018-04-16T00:03:01.506Z,79.10
2018-04-16T00:05:29.643Z,79.00
2018-04-16T00:07:57.770Z,78.80
2018-04-16T00:10:25.951Z,78.60
2018-04-16T00:12:54.092Z,78.70
2018-04-16T00:15:22.271Z,78.70
2018-04-16T00:17:50.378Z,78.60
2018-04-16T00:20:18.522Z,78.60
2018-04-16T00:22:46.680Z,78.80
2018-04-16T00:25:14.797Z,78.80
2018-04-16T00:27:43.739Z,78.50
2018-04-16T00:30:11.846Z,78.50
2018-04-16T00:32:45.736Z,78.60
2018-04-16T00:35:19.417Z,78.90
2018-04-16T00:37:53.212Z,79.20
2018-04-16T00:43:40.692Z,80.90
2018-04-16T00:46:14.503Z,80.80
2018-04-16T00:48:48.383Z,81.30
2018-04-16T00:51:22.103Z,81.80
2018-04-16T00:54:07.971Z,82.90
2018-04-16T00:56:41.832Z,82.40
2018-04-16T00:59:15.726Z,83.00
2018-04-16T01:01:50.403Z,83.20
2018-04-16T01:04:24.205Z,83.40
2018-04-16T01:06:58.111Z,83.70
2018-04-16T01:09:31.899Z,83.90
2018-04-16T01:12:05.617Z,84.30
2018-04-16T01:14:39.404Z,84.40
2018-04-16T01:17:13.242Z,84.70
2018-04-16T01:19:46.933Z,85.00
2018-04-16T01:22:20.642Z,85.20
2018-04-16T01:24:54.467Z,85.20
2018-04-16T01:27:28.268Z,85.10
2018-04-16T01:30:02.083Z,85.00
2018-04-16T01:32:35.899Z,85.30
2018-04-16T01:35:09.860Z,85.90
2018-04-16T01:37:43.687Z,85.60
2018-04-16T01:40:17.487Z,85.60
2018-04-16T01:42:51.235Z,85.60
2018-04-16T01:45:24.884Z,85.60
2018-04-16T01:47:58.616Z,85.60
2018-04-16T01:50:32.279Z,85.90
2018-04-16T01:53:06.071Z,86.40
2018-04-16T01:55:39.870Z,86.60
2018-04-16T01:58:13.899Z,86.60
2018-04-16T02:04:03.919Z,86.50
2018-04-16T02:06:37.606Z,86.60
2018-04-16T02:09:11.414Z,86.90
2018-04-16T02:11:45.016Z,86.50
2018-04-16T02:14:18.844Z,86.40
2018-04-16T02:16:53.530Z,86.10
2018-04-16T02:19:27.332Z,86.20
2018-04-16T02:22:01.858Z,86.00
2018-04-16T02:24:35.656Z,86.00
2018-04-16T02:27:09.503Z,86.30
2018-04-16T02:29:43.264Z,86.50
2018-04-16T02:32:16.973Z,86.30
2018-04-16T02:34:50.772Z,86.40
2018-04-16T02:37:25.392Z,86.80
2018-04-16T02:39:59.066Z,86.80
2018-04-16T02:42:32.811Z,86.70
2018-04-16T02:48:17.776Z,86.70
2018-04-16T02:50:52.987Z,87.50
2018-04-16T02:53:27.501Z,87.70
2018-04-16T02:56:02.128Z,87.50
2018-04-16T02:58:36.834Z,87.80
2018-04-16T03:01:10.543Z,87.70
2018-04-16T03:03:44.503Z,87.40
2018-04-16T03:06:18.269Z,87.00
2018-04-16T03:08:52.895Z,87.30
2018-04-16T03:11:27.452Z,87.20
2018-04-16T03:14:01.128Z,87.20
2018-04-16T03:16:34.853Z,87.20
2018-04-16T03:19:08.682Z,87.50
2018-04-16T03:21:42.492Z,87.60
2018-04-16T03:24:16.475Z,87.90
2018-04-16T03:26:50.174Z,88.10
2018-04-16T03:29:23.985Z,88.20
2018-04-16T03:31:57.847Z,88.10
2018-04-16T03:37:35.592Z,88.20
2018-04-16T03:40:09.566Z,88.50
2018-04-16T03:42:43.291Z,88.80
2018-04-16T03:45:17.019Z,88.90
2018-04-16T03:47:50.763Z,88.80
2018-04-16T03:50:25.355Z,88.80
2018-04-16T03:52:59.060Z,88.20
2018-04-16T03:55:32.044Z,88.00
2018-04-16T03:58:00.169Z,87.70
2018-04-16T04:00:29.051Z,87.70
2018-04-16T04:02:58.045Z,87.60
2018-04-16T04:05:26.968Z,87.50
2018-04-16T04:07:55.846Z,87.60
2018-04-16T04:10:24.033Z,87.50
2018-04-16T04:12:52.159Z,87.90
2018-04-16T04:15:21.043Z,88.50
2018-04-16T04:17:49.980Z,89.10
2018-04-16T04:20:18.152Z,88.80
2018-04-16T04:22:58.100Z,88.80
2018-04-16T04:25:38.068Z,88.80
2018-04-16T04:28:18.098Z,89.20
2018-04-16T04:30:46.194Z,89.60
2018-04-16T04:33:14.404Z,89.60
2018-04-16T04:35:43.340Z,90.30
2018-04-16T04:38:11.453Z,90.20
2018-04-16T04:40:39.642Z,90.20
2018-04-16T04:43:08.555Z,90.20
2018-04-16T04:45:36.693Z,90.30
2018-04-16T04:48:04.808Z,90.30
2018-04-16T04:50:32.907Z,90.30
2018-04-16T04:53:01.174Z,90.20
2018-04-16T04:55:30.105Z,90.40
2018-04-16T04:57:59.008Z,90.10
2018-04-16T05:00:28.024Z,90.20
2018-04-16T05:02:56.128Z,90.20
2018-04-16T05:05:24.235Z,90.40
2018-04-16T05:07:52.499Z,90.60
2018-04-16T05:10:21.415Z,90.70
2018-04-16T05:12:49.547Z,90.70
2018-04-16T05:15:17.776Z,90.80
2018-04-16T05:17:45.988Z,91.00
2018-04-16T05:20:14.042Z,90.90
2018-04-16T05:22:42.194Z,91.00
2018-04-16T05:25:10.327Z,91.30
2018-04-16T05:27:39.228Z,91.50
2018-04-16T05:30:08.110Z,91.50
2018-04-16T05:32:37.042Z,91.80
2018-04-16T05:35:05.187Z,91.80
2018-04-16T05:37:33.343Z,91.70
2018-04-16T05:40:02.265Z,91.80
2018-04-16T05:42:30.463Z,91.80
2018-04-16T05:44:59.300Z,91.90
2018-04-16T05:47:28.204Z,92.00
2018-04-16T05:49:56.388Z,92.00
2018-04-16T05:52:25.273Z,92.00
2018-04-16T05:54:53.444Z,92.00
2018-04-16T05:57:22.406Z,92.10
2018-04-16T05:59:51.431Z,92.30
2018-04-16T06:02:19.605Z,92.20
2018-04-16T06:04:47.776Z,92.40
2018-04-16T06:07:15.906Z,92.50
2018-04-16T06:09:44.835Z,92.30
2018-04-16T06:12:13.007Z,92.30
2018-04-16T06:14:41.123Z,92.40
2018-04-16T06:17:09.289Z,92.30
2018-04-16T06:19:37.428Z,92.30
2018-04-16T06:22:05.560Z,92.20
2018-04-16T06:24:35.200Z,92.20
2018-04-16T06:27:03.372Z,92.20
2018-04-16T06:29:31.561Z,92.20
2018-04-16T06:31:59.716Z,92.20
2018-04-16T06:34:27.990Z,92.30
2018-04-16T06:36:56.261Z,92.20
2018-04-16T06:39:24.523Z,92.10
2018-04-16T06:41:52.658Z,92.10
2018-04-16T06:44:20.885Z,92.00
2018-04-16T06:46:49.005Z,92.00
2018-04-16T06:49:17.144Z,92.00
2018-04-16T06:51:45.402Z,92.20
2018-04-16T06:54:13.531Z,92.20
2018-04-16T06:56:42.429Z,92.10
2018-04-16T06:59:11.460Z,92.00
2018-04-16T07:01:39.596Z,92.00
2018-04-16T07:04:08.643Z,91.70
2018-04-16T07:06:36.740Z,91.70
2018-04-16T07:09:05.878Z,91.90
2018-04-16T07:11:33.994Z,92.20
2018-04-16T07:14:02.261Z,92.10
2018-04-16T07:16:30.505Z,92.00
2018-04-16T07:18:58.632Z,92.10
2018-04-16T07:21:26.781Z,92.10
2018-04-16T07:23:55.018Z,92.40
2018-04-16T07:26:23.127Z,92.40
2018-04-16T07:28:51.363Z,92.20
2018-04-16T07:31:19.512Z,91.90
2018-04-16T07:33:48.404Z,92.30
2018-04-16T07:36:16.604Z,92.30
2018-04-16T07:38:44.730Z,92.10
2018-04-16T07:41:13.658Z,91.90
2018-04-16T07:43:41.868Z,92.20
2018-04-16T07:46:10.005Z,91.60
2018-04-16T07:48:38.183Z,91.70
2018-04-16T07:51:06.314Z,91.40
2018-04-16T07:53:34.522Z,91.50
2018-04-16T07:56:02.693Z,91.60
2018-04-16T07:58:30.832Z,91.50
2018-04-16T08:00:59.857Z,91.90
2018-04-16T08:03:28.045Z,91.90
2018-04-16T08:05:56.201Z,91.80
2018-04-16T08:08:24.336Z,92.00
2018-04-16T08:10:52.481Z,91.50
2018-04-16T08:13:20.612Z,92.00
2018-04-16T08:15:48.790Z,92.30
2018-04-16T08:18:16.915Z,92.30
2018-04-16T08:20:45.845Z,92.30
2018-04-16T08:23:13.985Z,92.20
2018-04-16T08:25:42.132Z,92.20
2018-04-16T08:28:10.250Z,92.40
2018-04-16T08:30:38.395Z,92.40
2018-04-16T08:33:07.332Z,92.50
2018-04-16T08:35:35.500Z,92.50
2018-04-16T08:38:03.673Z,92.40
2018-04-16T08:40:31.810Z,92.40
2018-04-16T08:42:59.964Z,92.50
2018-04-16T08:45:28.156Z,92.50
2018-04-16T08:47:56.327Z,92.20
2018-04-16T08:50:24.492Z,92.20
2018-04-16T08:52:53.395Z,92.40
2018-04-16T08:55:21.593Z,92.10
2018-04-16T08:57:49.772Z,91.80
2018-04-16T09:00:17.940Z,91.90
2018-04-16T09:02:46.117Z,92.10
2018-04-16T09:05:14.226Z,91.80
2018-04-16T09:07:42.360Z,91.90
2018-04-16T09:10:10.524Z,92.20
2018-04-16T09:12:38.696Z,92.10
2018-04-16T09:15:06.832Z,91.80
2018-04-16T09:17:35.740Z,91.90
2018-04-16T09:20:03.912Z,91.80
2018-04-16T09:22:32.101Z,91.70
2018-04-16T09:25:00.237Z,91.50
2018-04-16T09:27:29.214Z,91.50
2018-04-16T09:29:57.353Z,91.50
2018-04-16T09:32:25.467Z,91.40
2018-04-16T09:34:53.688Z,91.40
2018-04-16T09:37:21.819Z,91.50
2018-04-16T09:39:50.744Z,91.20
2018-04-16T09:42:18.868Z,91.20
2018-04-16T09:44:47.837Z,91.70
2018-04-16T09:47:16.046Z,91.70
2018-04-16T09:49:44.972Z,91.60
2018-04-16T09:52:13.106Z,91.60
2018-04-16T09:54:42.084Z,91.40
2018-04-16T09:57:10.280Z,91.40
2018-04-16T09:59:38.476Z,91.30
2018-04-16T10:02:12.361Z,91.40
2018-04-16T10:04:40.555Z,91.70
2018-04-16T10:07:08.729Z,91.70
2018-04-16T10:09:36.838Z,91.70
2018-04-16T10:12:05.056Z,91.70
2018-04-16T10:14:33.245Z,91.80
2018-04-16T10:17:01.423Z,91.40
2018-04-16T10:19:29.590Z,90.80
2018-04-16T10:21:57.776Z,90.30
2018-04-16T10:24:26.022Z,90.10
2018-04-16T10:26:54.210Z,90.10
2018-04-16T10:29:22.308Z,90.00
2018-04-16T10:31:50.560Z,89.80
2018-04-16T10:34:18.671Z,89.30
2018-04-16T10:36:46.903Z,88.50
2018-04-16T10:39:15.173Z,89.10
2018-04-16T10:41:43.291Z,88.70
2018-04-16T10:44:11.493Z,89.50
2018-04-16T10:46:40.400Z,88.90
2018-04-16T10:49:08.556Z,88.90
2018-04-16T10:51:37.577Z,88.70
2018-04-16T10:54:05.848Z,88.70
2018-04-16T10:56:33.968Z,87.60
2018-04-16T10:59:02.194Z,88.70
2018-04-16T11:01:30.452Z,89.70
2018-04-16T11:03:59.354Z,88.50
2018-04-16T11:06:27.474Z,88.50
2018-04-16T11:08:55.713Z,87.30
2018-04-16T11:11:23.870Z,87.30
2018-04-16T11:13:51.989Z,85.30
2018-04-16T11:16:20.898Z,86.70
2018-04-16T11:18:49.797Z,87.30
2018-04-16T11:21:17.931Z,87.30
2018-04-16T11:23:46.100Z,86.10
2018-04-16T11:26:14.244Z,86.70
2018-04-16T11:28:42.411Z,85.70
2018-04-16T11:31:10.557Z,84.60
2018-04-16T11:33:38.704Z,86.40
2018-04-16T11:36:07.005Z,87.70
2018-04-16T11:38:35.195Z,89.00
2018-04-16T11:41:03.551Z,89.80
2018-04-16T11:43:31.703Z,90.10
2018-04-16T11:46:00.609Z,90.40
2018-04-16T11:48:28.795Z,90.40
2018-04-16T11:50:57.086Z,91.40
2018-04-16T11:53:25.261Z,90.30
2018-04-16T11:55:53.438Z,88.70
2018-04-16T11:58:21.576Z,87.90
2018-04-16T12:00:50.478Z,85.90
2018-04-16T12:03:18.672Z,85.90
2018-04-16T12:05:47.366Z,86.90
2018-04-16T12:08:15.632Z,85.90
2018-04-16T12:10:43.771Z,85.80
2018-04-16T12:13:12.796Z,88.00
2018-04-16T12:15:40.957Z,88.00
2018-04-16T12:18:09.079Z,89.60
2018-04-16T12:20:37.236Z,90.40
2018-04-16T12:23:17.105Z,91.00
2018-04-16T12:25:46.109Z,91.80
2018-04-16T12:28:20.914Z,91.90
2018-04-16T12:30:49.103Z,91.60
2018-04-16T12:33:18.016Z,92.00
2018-04-16T12:35:51.800Z,92.00
2018-04-16T12:38:26.623Z,91.90
2018-04-16T12:41:00.466Z,91.90
2018-04-16T12:43:34.478Z,91.90
2018-04-16T12:46:02.610Z,91.60
2018-04-16T12:48:31.641Z,91.80
2018-04-16T12:50:59.812Z,91.80
2018-04-16T12:53:27.985Z,91.90
2018-04-16T12:55:56.114Z,91.90
2018-04-16T12:58:25.016Z,91.70
2018-04-16T13:00:59.978Z,92.00
2018-04-16T13:03:28.229Z,92.00
2018-04-16T13:06:02.314Z,92.20
2018-04-16T13:08:30.504Z,92.40
2018-04-16T13:10:59.455Z,92.40
2018-04-16T13:13:27.803Z,92.40
2018-04-16T13:15:56.042Z,92.50
2018-04-16T13:18:24.967Z,92.50
2018-04-16T13:20:59.080Z,92.50
2018-04-16T13:23:27.249Z,92.60
2018-04-16T13:25:55.373Z,92.00
2018-04-16T13:28:29.437Z,92.20
2018-04-16T13:30:57.581Z,91.80
2018-04-16T13:33:26.498Z,91.50
2018-04-16T13:35:54.656Z,91.50
2018-04-16T13:38:28.664Z,91.30
2018-04-16T13:40:56.846Z,91.00
2018-04-16T13:43:31.059Z,91.00
2018-04-16T13:46:04.843Z,90.80
2018-04-16T13:48:33.010Z,89.50
2018-04-16T13:51:01.925Z,90.00
2018-04-16T13:53:30.061Z,89.90
2018-04-16T13:55:58.199Z,89.10
2018-04-16T13:58:26.441Z,90.10
2018-04-16T14:00:54.554Z,88.80
2018-04-16T14:03:22.733Z,90.10
2018-04-16T14:05:56.878Z,90.00
2018-04-16T14:08:31.823Z,89.00
2018-04-16T14:11:00.064Z,88.90
2018-04-16T14:13:29.309Z,87.20
2018-04-16T14:16:03.084Z,87.20
2018-04-16T14:18:37.626Z,89.10
2018-04-16T14:21:11.374Z,89.10
2018-04-16T14:23:40.417Z,87.90
2018-04-16T14:26:14.472Z,87.90
2018-04-16T14:28:42.644Z,88.10
2018-04-16T14:31:16.771Z,87.00
2018-04-16T14:33:50.929Z,85.80
2018-04-16T14:36:19.045Z,86.30
2018-04-16T14:38:47.197Z,86.40
2018-04-16T14:41:20.980Z,85.40
2018-04-16T14:43:49.153Z,84.90
2018-04-16T14:46:23.128Z,83.90
2018-04-16T14:48:57.012Z,85.70
2018-04-16T14:51:25.236Z,84.80
2018-04-16T14:53:53.407Z,86.50
2018-04-16T14:56:22.294Z,87.10
2018-04-16T14:58:50.424Z,87.00
2018-04-16T15:01:18.584Z,86.40
2018-04-16T15:03:46.710Z,85.90
2018-04-16T15:06:20.555Z,83.40
2018-04-16T15:08:54.472Z,78.10
2018-04-16T15:11:22.692Z,74.70
2018-04-16T15:14:02.448Z,72.60
2018-04-16T15:16:36.359Z,72.90
2018-04-16T15:19:04.524Z,75.30
2018-04-16T15:21:33.411Z,77.50
2018-04-16T15:24:01.604Z,77.50
2018-04-16T15:26:29.720Z,79.50
2018-04-16T15:28:58.624Z,81.60
2018-04-16T15:31:27.544Z,79.30
2018-04-16T15:33:55.709Z,79.10
2018-04-16T15:36:23.849Z,79.40
2018-04-16T15:38:52.745Z,79.50
2018-04-16T15:41:20.944Z,78.80
2018-04-16T15:43:49.117Z,79.50
2018-04-16T15:46:17.227Z,79.40
2018-04-16T15:48:45.375Z,79.50
2018-04-16T15:51:13.508Z,80.80
2018-04-16T15:53:41.664Z,81.90
2018-04-16T15:56:10.688Z,84.40
2018-04-16T15:58:38.859Z,84.40
2018-04-16T16:01:07.022Z,85.80
2018-04-16T16:03:35.163Z,87.80
2018-04-16T16:06:04.194Z,85.30
2018-04-16T16:08:32.315Z,85.20
2018-04-16T16:11:00.540Z,82.90
2018-04-16T16:13:28.938Z,82.30
2018-04-16T16:15:57.052Z,80.70
2018-04-16T16:18:25.979Z,80.50
2018-04-16T16:20:54.586Z,80.40
2018-04-16T16:23:22.715Z,80.50
2018-04-16T16:25:51.788Z,79.90
2018-04-16T16:28:20.758Z,80.60
2018-04-16T16:30:48.895Z,80.60
2018-04-16T16:33:17.053Z,81.70
2018-04-16T16:35:45.200Z,81.60
2018-04-16T16:38:13.383Z,82.20
2018-04-16T16:40:42.283Z,83.20
2018-04-16T16:43:10.415Z,83.20
2018-04-16T16:45:38.590Z,83.10
2018-04-16T16:48:08.227Z,84.00
2018-04-16T16:50:36.353Z,84.00
2018-04-16T16:53:04.589Z,84.50
2018-04-16T16:55:32.707Z,85.20
2018-04-16T16:58:00.852Z,85.70
2018-04-16T17:00:29.116Z,85.70
2018-04-16T17:02:57.280Z,86.40
2018-04-16T17:05:25.480Z,86.20
2018-04-16T17:07:53.728Z,86.40
2018-04-16T17:10:21.899Z,86.80
2018-04-16T17:12:50.070Z,86.80
2018-04-16T17:15:18.446Z,87.00
2018-04-16T17:17:46.552Z,86.60
2018-04-16T17:20:14.739Z,86.90
2018-04-16T17:22:42.969Z,85.70
2018-04-16T17:25:11.114Z,86.10
2018-04-16T17:27:40.084Z,86.70
2018-04-16T17:30:09.118Z,86.90
2018-04-16T17:32:37.255Z,86.80
2018-04-16T17:35:05.412Z,87.20
2018-04-16T17:37:33.664Z,87.30
2018-04-16T17:40:01.826Z,87.40
2018-04-16T17:42:29.988Z,87.80
2018-04-16T17:44:58.153Z,87.90
2018-04-16T17:47:26.327Z,88.10
2018-04-16T17:49:54.452Z,88.80
2018-04-16T17:52:22.727Z,89.00
2018-04-16T17:54:52.383Z,90.00
2018-04-16T17:57:20.529Z,89.50
2018-04-16T17:59:48.739Z,89.70
2018-04-16T18:02:17.118Z,89.70
2018-04-16T18:04:45.325Z,89.70
2018-04-16T18:07:14.972Z,89.70
2018-04-16T18:09:43.333Z,89.70
2018-04-16T18:12:12.977Z,90.00
2018-04-16T18:14:41.155Z,89.80
2018-04-16T18:17:09.287Z,90.00
2018-04-16T18:19:37.494Z,90.00
2018-04-16T18:22:05.617Z,90.00
2018-04-16T18:24:33.773Z,90.10
2018-04-16T18:27:02.021Z,90.00
2018-04-16T18:29:30.159Z,90.10
2018-04-16T18:31:58.331Z,90.10
2018-04-16T18:34:26.458Z,90.10
2018-04-16T18:36:54.704Z,90.20
2018-04-16T18:39:23.052Z,90.20
2018-04-16T18:41:51.172Z,90.20
2018-04-16T18:44:19.348Z,90.30
2018-04-16T18:46:47.592Z,90.40
2018-04-16T18:49:15.738Z,90.80
2018-04-16T18:51:44.669Z,90.60
2018-04-16T18:54:12.793Z,90.60
2018-04-16T18:56:40.970Z,90.80
2018-04-16T18:59:09.877Z,90.90
2018-04-16T19:01:38.167Z,90.90
2018-04-16T19:04:06.320Z,90.90
2018-04-16T19:06:34.471Z,90.90
2018-04-16T19:09:03.389Z,90.80
2018-04-16T19:11:31.553Z,90.80
2018-04-16T19:13:59.730Z,90.80
2018-04-16T19:16:27.889Z,90.80
2018-04-16T19:18:56.078Z,90.90
2018-04-16T19:21:29.766Z,91.00
2018-04-16T19:23:57.935Z,91.30
2018-04-16T19:26:26.076Z,91.50
2018-04-16T19:28:55.058Z,91.80
2018-04-16T19:31:23.232Z,91.80
2018-04-16T19:33:57.299Z,91.70
2018-04-16T19:36:25.554Z,91.80
2018-04-16T19:38:53.753Z,91.90
2018-04-16T19:41:21.942Z,91.80
2018-04-16T19:43:50.204Z,91.80
2018-04-16T19:46:18.567Z,91.80
2018-04-16T19:48:52.696Z,91.60
2018-04-16T19:51:20.952Z,91.50
2018-04-16T19:53:49.198Z,91.50
2018-04-16T19:56:23.961Z,91.60
2018-04-16T19:58:52.109Z,91.50
2018-04-16T20:01:20.258Z,91.40
2018-04-16T20:03:54.721Z,91.50
2018-04-16T20:06:22.884Z,91.50
2018-04-16T20:08:51.018Z,91.60
2018-04-16T20:11:19.202Z,91.50
2018-04-16T20:13:48.164Z,91.40
2018-04-16T20:16:16.396Z,91.60
2018-04-16T20:18:44.566Z,91.90
2018-04-16T20:21:12.694Z,91.60
2018-04-16T20:23:40.869Z,91.60
2018-04-16T20:26:08.980Z,91.50
2018-04-16T20:28:37.132Z,91.40
2018-04-16T20:31:06.022Z,91.50
2018-04-16T20:33:34.168Z,91.50
2018-04-16T20:36:02.354Z,91.30
2018-04-16T20:38:30.495Z,91.60
2018-04-16T20:40:58.628Z,91.40
2018-04-16T20:43:27.538Z,91.40
2018-04-16T20:45:55.691Z,91.40
2018-04-16T20:48:23.846Z,91.30
2018-04-16T20:50:52.751Z,91.30
2018-04-16T20:53:21.656Z,91.30
2018-04-16T20:55:49.879Z,91.30
2018-04-16T20:58:18.777Z,91.40
2018-04-16T21:00:47.704Z,91.50
2018-04-16T21:03:15.865Z,91.40
2018-04-16T21:05:44.860Z,91.20
2018-04-16T21:08:13.025Z,91.20
2018-04-16T21:10:41.201Z,91.20
2018-04-16T21:13:10.203Z,91.00
2018-04-16T21:15:38.348Z,91.00
2018-04-16T21:18:07.208Z,90.90
2018-04-16T21:20:35.427Z,90.80
2018-04-16T21:23:04.300Z,90.90
2018-04-16T21:25:32.796Z,90.90
2018-04-16T21:28:01.744Z,91.00
2018-04-16T21:30:30.630Z,91.10
2018-04-16T21:32:59.545Z,90.90
2018-04-16T21:35:28.462Z,91.00
2018-04-16T21:37:56.626Z,91.00
2018-04-16T21:40:24.724Z,91.00
2018-04-16T21:42:52.874Z,91.00
2018-04-16T21:45:21.020Z,91.00
2018-04-16T21:47:49.169Z,91.00
2018-04-16T21:50:17.347Z,91.00
2018-04-16T21:52:45.480Z,91.10
2018-04-16T21:55:13.628Z,91.20
2018-04-16T21:57:41.772Z,91.30
2018-04-16T22:00:11.830Z,91.30
2018-04-16T22:02:39.996Z,91.30
2018-04-16T22:05:08.099Z,91.40
2018-04-16T22:07:36.312Z,91.70
2018-04-16T22:10:04.517Z,91.70
2018-04-16T22:12:32.692Z,91.80
2018-04-16T22:15:00.782Z,91.80
2018-04-16T22:17:29.019Z,91.80
2018-04-16T22:19:57.911Z,91.70
2018-04-16T22:22:26.089Z,91.70
2018-04-16T22:24:54.252Z,91.80
2018-04-16T22:27:23.245Z,91.70
2018-04-16T22:29:51.427Z,91.70
2018-04-16T22:32:19.589Z,91.80
2018-04-16T22:34:48.526Z,91.70
2018-04-16T22:37:18.289Z,91.80
2018-04-16T22:39:46.447Z,91.80
2018-04-16T22:42:14.584Z,91.80
2018-04-16T22:44:43.523Z,91.90
2018-04-16T22:47:11.695Z,91.80
2018-04-16T22:49:39.822Z,91.90
2018-04-16T22:52:07.987Z,92.20
2018-04-16T22:54:36.918Z,91.90
2018-04-16T22:57:05.059Z,91.90
2018-04-16T22:59:33.996Z,92.00
2018-04-16T23:02:02.130Z,92.00
2018-04-16T23:04:31.052Z,92.20
2018-04-16T23:06:59.952Z,92.20
2018-04-16T23:09:28.121Z,92.20
2018-04-16T23:11:56.251Z,92.20
2018-04-16T23:14:25.169Z,92.10
2018-04-16T23:16:53.290Z,92.10
2018-04-16T23:19:21.422Z,92.20
2018-04-16T23:21:49.586Z,92.20
2018-04-16T23:24:17.680Z,92.40
2018-04-16T23:26:45.880Z,92.30
2018-04-16T23:29:13.980Z,92.40
2018-04-16T23:31:42.174Z,92.40
2018-04-16T23:34:11.055Z,92.50
2018-04-16T23:36:39.338Z,92.50
2018-04-16T23:39:08.283Z,92.40
2018-04-16T23:41:36.503Z,92.40
2018-04-16T23:44:05.372Z,92.50
2018-04-16T23:46:33.597Z,92.40
2018-04-16T23:49:01.810Z,92.50
2018-04-16T23:51:30.728Z,92.50
2018-04-16T23:53:58.980Z,92.50
2018-04-16T23:56:27.864Z,92.40
2018-04-16T23:58:56.773Z,92.30
